• Join FlightAware (Why Join?)
  • Login
  • US Flag 
01:49PM EDT


 

Airport Tracker/Info


-or-


 

Live Flight TrackerFlight Track Log ✈ EJA638P ✈ 04-May-2013 ✈ KOMA - KHPN

Flight Track Log - Related Links

Times and Time Zones

All times are in EDT time to prevent confusion due to time zone crossing. See the EJA638P flight status page for this flight to view local times or setup timezone preferences in your user account.

Time Position Orientation Groundspeed Altitude Reporting Facility
EDT Latitude Longitude Course Direction KTS MPH feet Rate Location/Type
02:52PM 41.3103 -95.9011 North 142 163 1,800  Level Minneapolis Center
02:53PM 41.3497 -95.8942 North 235 270 3,300 2,280 Climbing Minneapolis Center
02:54PM 41.3617 -95.8136 79° East 239 275 6,100 2,700 Climbing Minneapolis Center
02:55PM 41.3667 -95.7203 86° East 250 288 8,900 2,160 Climbing Minneapolis Center
02:56PM 41.3783 -95.6192 81° East 263 303 10,600 1,680 Climbing Minneapolis Center
02:57PM 41.3900 -95.5106 82° East 279 321 12,400 1,560 Climbing Minneapolis Center
02:58PM 41.4019 -95.3956 82° East 298 343 13,900 1,680 Climbing Minneapolis Center
02:59PM 41.4178 -95.2450 82° East 335 386 15,900 1,740 Climbing Minneapolis Center
03:00PM 41.4300 -95.1203 83° East 339 390 17,600 1,500 Climbing Minneapolis Center
03:01PM 41.4439 -94.9936 82° East 343 395 19,100 1,500 Climbing Minneapolis Center
03:02PM 41.4569 -94.8639 82° East 350 403 20,700 1,440 Climbing Minneapolis Center
03:04PM 41.4867 -94.5839 82° East 364 419 23,800 1,380 Climbing Chicago Center
03:05PM 41.4981 -94.4594 83° East 371 427 25,000 1,320 Climbing Minneapolis Center
03:06PM 41.5111 -94.3233 83° East 370 426 26,400 1,380 Climbing Minneapolis Center
03:07PM 41.5236 -94.1778 83° East 373 429 27,900 1,380 Climbing Minneapolis Center
03:08PM 41.5375 -94.0414 82° East 372 428 29,300 1,440 Climbing Minneapolis Center
03:09PM 41.5500 -93.9047 83° East 373 429 30,900 1,620 Climbing Minneapolis Center
03:10PM 41.5650 -93.7433 83° East 368 423 32,700 1,560 Climbing Minneapolis Center
03:11PM 41.5783 -93.6100 82° East 365 420 34,200 1,440 Climbing Minneapolis Center
03:12PM 41.5911 -93.4758 83° East 365 420 35,700 1,380 Climbing Minneapolis Center
03:13PM 41.6017 -93.3444 84° East 362 417 37,100 1,380 Climbing Minneapolis Center
03:14PM 41.6136 -93.2153 83° East 355 409 38,600 1,380 Climbing Minneapolis Center
03:15PM 41.6250 -93.0886 83° East 350 403 40,000 1,020 Climbing Minneapolis Center
03:16PM 41.6350 -92.9636 84° East 344 396 40,800 480 Climbing Minneapolis Center
03:17PM 41.6489 -92.8092 83° East 347 399 41,000 60 Climbing Minneapolis Center
03:18PM 41.6600 -92.6747 84° East 358 412 41,000  Level Minneapolis Center
03:19PM 41.6719 -92.5317 84° East 375 432 41,000  Level Minneapolis Center
03:20PM 41.6842 -92.3817 84° East 387 445 41,000  Level Minneapolis Center
03:21PM 41.6956 -92.2364 84° East 394 453 41,000  Level Minneapolis Center
03:22PM 41.7072 -92.0908 84° East 397 457 41,000  Level Minneapolis Center
03:23PM 41.7089 -92.0594 86° East 397 457 41,000  Level Chicago Center
03:24PM 41.7200 -91.9150 84° East 396 456 41,000  Level Chicago Center
03:25PM 41.7325 -91.7422 84° East 394 453 41,000  Level Chicago Center
03:26PM 41.7436 -91.5956 84° East 396 456 41,000  Level Chicago Center
03:27PM 41.7550 -91.4514 84° East 396 456 41,000  Level Chicago Center
03:28PM 41.7642 -91.3086 85° East 392 451 41,000  Level Chicago Center
03:29PM 41.7744 -91.1664 84° East 389 448 41,000  Level Chicago Center
03:30PM 41.7856 -90.9944 85° East 391 450 41,000  Level Chicago Center
03:31PM 41.7958 -90.8506 84° East 391 450 41,000  Level Chicago Center
03:32PM 41.8058 -90.7067 85° East 393 452 41,000  Level Chicago Center
03:33PM 41.8147 -90.5633 85° East 391 450 41,000  Level Chicago Center
03:34PM 41.8231 -90.4194 86° East 392 451 41,000  Level Chicago Center
03:35PM 41.8344 -90.2467 85° East 391 450 41,000  Level Chicago Center
03:36PM 41.8433 -90.1047 85° East 387 445 41,000  Level Chicago Center
03:37PM 41.8514 -89.9611 86° East 389 448 41,000  Level Chicago Center
03:38PM 41.8600 -89.8219 85° East 388 447 41,000  Level Chicago Center
03:39PM 41.8678 -89.6497 86° East 389 448 41,000  Level Chicago Center
03:40PM 41.8775 -89.5061 85° East 389 448 41,000  Level Chicago Center
03:41PM 41.8839 -89.3619 87° East 390 449 41,000  Level Chicago Center
03:42PM 41.8917 -89.2167 86° East 389 448 41,000  Level Chicago Center
03:43PM 41.9003 -89.0694 85° East 395 455 41,000  Level Chicago Center
03:44PM 41.9081 -88.9239 86° East 392 451 41,000  Level Chicago Center
03:45PM 41.9150 -88.7772 86° East 395 455 41,000  Level Chicago Center
03:46PM 41.9228 -88.6014 87° East 393 452 41,000  Level Chicago Center
03:47PM 41.9306 -88.4531 86° East 397 457 41,000  Level Chicago Center
03:48PM 41.9364 -88.3067 87° East 394 453 41,000  Level Chicago Center
03:49PM 41.9431 -88.1581 86° East 396 456 41,000  Level Chicago Center
03:50PM 41.9489 -88.0083 87° East 398 458 41,000  Level Chicago Center
03:52PM 41.9542 -87.8611 87° East 396 456 41,000  Level Chicago Center
03:53PM 41.9614 -87.7125 86° East 398 458 41,000  Level Chicago Center
03:54PM 41.9669 -87.5344 88° East 397 457 41,000  Level Chicago Center
03:55PM 41.9731 -87.3836 87° East 403 464 41,000  Level Chicago Center
03:56PM 41.9767 -87.2333 88° East 403 464 41,000  Level Chicago Center
03:57PM 41.9833 -87.0856 86° East 399 459 41,000  Level Chicago Center
03:58PM 41.9869 -86.9364 88° East 400 460 41,000  Level Chicago Center
03:59PM 41.9917 -86.7886 87° East 399 459 41,000  Level Chicago Center
04:00PM 41.9958 -86.6333 88° East 397 457 41,000  Level Chicago Center
04:01PM 42.0017 -86.4853 87° East 397 457 41,000  Level Chicago Center
04:02PM 42.0050 -86.3361 88° East 399 459 41,000  Level Chicago Center
04:03PM 42.0097 -86.1581 88° East 398 458 41,000  Level Chicago Center
04:04PM 42.0131 -86.0083 88° East 399 459 41,000  Level Chicago Center
04:05PM 42.0183 -85.8728 87° East 396 456 41,000  Level Chicago Center
04:06PM 42.0211 -85.7253 88° East 397 457 41,000  Level Chicago Center
04:07PM 42.0253 -85.5514 88° East 393 452 41,000  Level Chicago Center
04:08PM 42.0281 -85.4067 88° East 391 450 41,000  Level Chicago Center
04:09PM 42.0319 -85.3000 87° East 383 441 41,000  Level Cleveland Center
04:10PM 42.0356 -85.1547 88° East 383 441 41,000  Level Cleveland Center
04:11PM 42.0372 -85.0094 89° East 383 441 41,000  Level Cleveland Center
04:12PM 42.0406 -84.8669 88° East 383 441 41,000  Level Cleveland Center
04:13PM 42.0542 -84.7197 83° East 383 441 41,000  Level Cleveland Center
04:14PM 42.0658 -84.5719 84° East 383 441 41,000  Level Cleveland Center
04:15PM 42.0811 -84.4247 82° East 388 447 41,000  Level Cleveland Center
04:16PM 42.0872 -84.3019 86° East 388 447 41,000  Level Cleveland Center
04:17PM 42.1006 -84.1489 83° East 388 447 41,000  Level Cleveland Center
04:18PM 42.1133 -83.9983 83° East 388 447 41,000  Level Cleveland Center
04:19PM 42.1261 -83.8478 83° East 394 453 41,000  Level Cleveland Center
04:20PM 42.1364 -83.7025 85° East 394 453 41,000  Level Cleveland Center
04:21PM 42.1492 -83.5381 84° East 402 463 41,000  Level Cleveland Center
04:22PM 42.1614 -83.3844 84° East 402 463 41,000  Level Cleveland Center
04:23PM 42.1731 -83.2392 84° East 396 456 41,000  Level Cleveland Center
04:24PM 42.1825 -83.1022 85° East 401 461 41,000  Level Cleveland Center
04:25PM 42.1939 -82.9514 84° East 401 461 41,000  Level Cleveland Center
04:26PM 42.2078 -82.7867 83° East 406 467 41,000  Level Cleveland Center
04:27PM 42.2189 -82.6383 84° East 406 467 41,000  Level Cleveland Center
04:28PM 42.2278 -82.4872 85° East 406 467 41,000  Level Cleveland Center
04:29PM 42.2383 -82.3389 84° East 406 467 41,000  Level Cleveland Center
04:30PM 42.2489 -82.1847 85° East 406 467 41,000  Level Cleveland Center
04:31PM 42.2633 -82.0336 83° East 406 467 41,000  Level Cleveland Center
04:32PM 42.2714 -81.8822 86° East 406 467 41,000  Level Cleveland Center
04:33PM 42.2814 -81.7281 85° East 406 467 41,000  Level Cleveland Center
04:34PM 42.2911 -81.5767 85° East 406 467 41,000  Level Cleveland Center
04:35PM 42.3008 -81.4225 85° East 400 460 41,000  Level Cleveland Center
04:36PM 42.3081 -81.2767 86° East 405 466 41,000  Level Cleveland Center
04:37PM 42.3172 -81.1364 85° East 411 473 41,000  Level Cleveland Center
04:38PM 42.3261 -80.9819 85° East 405 466 41,000  Level Cleveland Center
04:39PM 42.3350 -80.8358 85° East 405 466 41,000  Level Cleveland Center
04:40PM 42.3414 -80.6814 87° East 405 466 41,000  Level Cleveland Center
04:41PM 42.3519 -80.5325 84° East 399 459 41,000  Level Cleveland Center
04:42PM 42.3600 -80.3725 86° East 406 467 41,000  Level Cleveland Center
04:43PM 42.3678 -80.2067 86° East 406 467 41,000  Level Cleveland Center
04:44PM 42.3756 -80.0547 86° East 406 467 41,000  Level Cleveland Center
04:45PM 42.3831 -79.9000 86° East 406 467 41,000  Level Cleveland Center
04:46PM 42.3883 -79.7511 87° East 406 467 41,000  Level Cleveland Center
04:47PM 42.3956 -79.5992 86° East 406 467 41,000  Level Cleveland Center
04:48PM 42.4044 -79.4417 86° East 406 467 41,000  Level Cleveland Center
04:49PM 42.4114 -79.2867 86° East 406 467 41,000  Level Cleveland Center
04:50PM 42.4158 -79.1347 88° East 406 467 41,000  Level Cleveland Center
04:51PM 42.4242 -78.9800 86° East 406 467 41,000  Level Cleveland Center
04:52PM 42.4303 -78.8392 87° East 406 467 41,000  Level Cleveland Center
04:53PM 42.4342 -78.6842 88° East 406 467 41,000  Level Cleveland Center
04:54PM 42.4419 -78.5264 86° East 406 467 41,000  Level Cleveland Center
04:55PM 42.4475 -78.3742 87° East 406 467 41,000  Level Cleveland Center
04:56PM 42.4525 -78.2164 87° East 406 467 41,000  Level Cleveland Center
04:57PM 42.4556 -78.0617 88° East 406 467 41,000  Level Cleveland Center
04:58PM 42.4603 -77.9039 88° East 406 467 41,000  Level Cleveland Center
04:59PM 42.4650 -77.7517 88° East 406 467 41,000 -180 Level Cleveland Center
05:00PM 42.4694 -77.5964 88° East 406 467 40,700 -840 Descending Cleveland Center
05:01PM 42.4736 -77.4414 88° East 406 467 39,400 -1,500 Descending Cleveland Center
05:02PM 42.4778 -77.2864 88° East 406 467 37,800 -1,680 Descending Cleveland Center
05:03PM 42.4817 -77.1314 88° East 406 467 36,100 -1,740 Descending Cleveland Center
05:04PM 42.4883 -76.8922 88° East 421 484 33,500 -1,260 Descending Boston Center
05:05PM 42.4900 -76.7375 89° East 416 479 33,000 -300 Descending Boston Center
05:06PM 42.4939 -76.5800 88° East 416 479 33,000  Level Boston Center
05:07PM 42.4867 -76.4244 94° East 416 479 33,000 -60 Level Boston Center
05:08PM 42.4564 -76.2761 105° East 416 479 32,900 -660 Descending Boston Center
05:09PM 42.4242 -76.1194 106° East 416 479 31,700 -1,380 Descending Boston Center
05:10PM 42.3894 -75.9600 106° East 427 491 30,200 -1,500 Descending Boston Center
05:11PM 42.3589 -75.8036 105° East 427 491 28,700 -1,920 Descending Boston Center
05:12PM 42.3278 -75.6503 105° East 427 491 26,400 -1,980 Descending Boston Center
05:13PM 42.2908 -75.4828 107° East 427 491 24,800 -1,920 Descending Boston Center
05:14PM 42.2611 -75.3467 106° East 427 491 22,600 -2,100 Descending Boston Center
05:15PM 42.2311 -75.2050 106° East 406 467 20,700 -1,860 Descending Boston Center
05:16PM 42.2031 -75.0719 106° East 388 447 18,900 -1,380 Descending Boston Center
05:17PM 42.1686 -74.9389 109° East 370 426 18,000 -480 Descending Boston Center
05:18PM 42.1189 -74.8219 120° Southeast 365 420 18,000  Level Boston Center
05:19PM 42.0694 -74.6969 118° Southeast 371 427 18,000  Level Boston Center
05:20PM 42.0097 -74.5581 120° Southeast 381 438 18,000 -540 Level Boston Center
05:21PM 41.9597 -74.4419 120° Southeast 381 438 17,000 -1,020 Descending Boston Center
05:22PM 41.9097 -74.3203 119° Southeast 381 438 16,000 -540 Descending Boston Center
05:23PM 41.8572 -74.2017 121° Southeast 368 423 16,000 -660 Level Boston Center
05:24PM 41.8028 -74.0889 123° Southeast 368 423 14,700 -2,100 Descending Boston Center
05:25PM 41.7458 -73.9844 126° Southeast 358 412 11,900 -2,100 Descending Boston Center
05:26PM 41.6756 -73.9381 154° Southeast 333 383 10,600 -1,500 Descending Boston Center
05:27PM 41.5861 -73.9250 174° South 298 343 9,000 -1,500 Descending Boston Center
05:28PM 41.5175 -73.9150 174° South 292 336 7,700 -1,380 Descending Boston Center
05:29PM 41.4333 -73.9000 172° South 278 320 6,300 -1,200 Descending New York TRACON
05:30PM 41.3500 -73.8833 171° South 263 303 5,200 -960 Descending New York TRACON
05:31PM 41.2833 -73.8667 169° South 237 273 4,400 -840 Descending New York TRACON
05:32PM 41.2333 -73.8333 153° Southeast 230 265 3,600 -660 Descending New York TRACON
05:33PM 41.1833 -73.8000 153° Southeast 201 231 3,100 -900 Descending New York TRACON
05:34PM 41.1333 -73.7500 143° Southeast 184 212 1,800 -1,080 Descending New York TRACON
05:35PM 41.1000 -73.7333 159° South 123 142 1,000 -840 Descending New York TRACON
05:37PM 41.0669 -73.7076 252° West  Level Estimated
05:44PM 41.0667 -73.7000 246° West  Level FlightAware Approximate